Time;durP1;ratioP1;P1;durP2;ratioP2;P2;SDS_P1;SDS_P2;PMS_P1;PMS_P2;Temp;Humidity;BMP_temperature;BMP_pressure;BME280_temperature;BME280_humidity;BME280_pressure;Samples;Min_cycle;Max_cycle;Signal;HPM_P1;HPM_P2
2021/07/11 00:00:01;;;;;;;;;33.33;31.00;;;;;;;;8826207;40;9859;-63
2021/07/11 00:06:06;;;;;;;;;32.33;29.67;;;;;;;;8823583;40;9916;-62
2021/07/11 00:12:08;;;;;;;;;23.67;23.67;;;;;;;;8822761;40;9887;-61
2021/07/11 00:18:11;;;;;;;;;32.00;29.00;;;;;;;;8823395;40;10379;-62
2021/07/11 00:24:13;;;;;;;;;35.00;32.33;;;;;;;;8822901;40;10043;-61
2021/07/11 00:30:16;;;;;;;;;31.67;31.33;;;;;;;;8822520;40;9881;-62
2021/07/11 00:36:18;;;;;;;;;29.00;27.33;;;;;;;;8821967;40;9914;-63
2021/07/11 00:42:21;;;;;;;;;34.33;31.00;;;;;;;;8822469;40;9869;-61
2021/07/11 00:48:26;;;;;;;;;28.67;28.33;;;;;;;;8821639;40;10036;-61
2021/07/11 00:54:28;;;;;;;;;27.00;26.67;;;;;;;;8820339;40;9834;-61
2021/07/11 01:00:31;;;;;;;;;27.67;21.67;;;;;;;;8812697;40;10054;-61
2021/07/11 01:06:40;;;;;;;;;32.67;30.67;;;;;;;;8812296;40;9949;-62
2021/07/11 01:12:49;;;;;;;;;31.33;31.33;;;;;;;;8812207;40;9855;-62
2021/07/11 01:18:59;;;;;;;;;28.00;28.00;;;;;;;;8819752;40;9971;-63
2021/07/11 01:25:10;;;;;;;;;33.33;30.00;;;;;;;;8811912;40;10043;-61
2021/07/11 01:31:13;;;;;;;;;34.33;30.67;;;;;;;;8821376;40;9874;-62
2021/07/11 01:37:17;;;;;;;;;33.67;27.67;;;;;;;;8820923;40;10043;-62
2021/07/11 01:43:22;;;;;;;;;24.00;24.00;;;;;;;;8812015;40;9937;-61
2021/07/11 01:49:28;;;;;;;;;31.67;28.33;;;;;;;;8824284;40;10037;-61
2021/07/11 01:55:33;;;;;;;;;29.67;26.67;;;;;;;;8814841;40;9887;-61
2021/07/11 02:01:41;;;;;;;;;31.00;29.33;;;;;;;;8822678;40;10014;-61
2021/07/11 02:07:48;;;;;;;;;33.33;30.33;;;;;;;;8815364;40;9890;-62
2021/07/11 02:14:04;;;;;;;;;33.00;26.67;;;;;;;;8814869;40;9939;-61
2021/07/11 02:20:08;;;;;;;;;29.00;29.00;;;;;;;;8822668;40;10080;-62
2021/07/11 02:26:14;;;;;;;;;25.33;25.33;;;;;;;;8824386;40;10674;-62
2021/07/11 02:32:19;;;;;;;;;27.00;26.33;;;;;;;;8823012;40;9870;-61
2021/07/11 02:38:22;;;;;;;;;28.67;27.67;;;;;;;;8824713;40;10102;-62
2021/07/11 02:44:26;;;;;;;;;25.67;24.00;;;;;;;;8815039;40;9874;-61
2021/07/11 02:50:30;;;;;;;;;23.67;23.67;;;;;;;;8814925;40;9914;-61
2021/07/11 02:56:38;;;;;;;;;25.67;23.67;;;;;;;;8822719;40;9985;-61
2021/07/11 03:02:44;;;;;;;;;19.33;19.33;;;;;;;;8813629;40;9824;-61
2021/07/11 03:08:50;;;;;;;;;23.00;23.00;;;;;;;;8822769;40;10656;-62
2021/07/11 03:15:00;;;;;;;;;30.33;26.33;;;;;;;;8823813;40;9971;-61
2021/07/11 03:21:05;;;;;;;;;26.00;23.67;;;;;;;;8814033;40;10076;-61
2021/07/11 03:27:09;;;;;;;;;25.67;23.67;;;;;;;;8806324;40;9924;-62
2021/07/11 03:33:13;;;;;;;;;25.33;21.67;;;;;;;;8823730;40;10434;-62
2021/07/11 03:39:16;;;;;;;;;25.33;25.33;;;;;;;;8821842;40;10392;-61
2021/07/11 03:45:19;;;;;;;;;21.67;21.33;;;;;;;;8821919;40;10413;-62
2021/07/11 03:51:24;;;;;;;;;23.33;23.33;;;;;;;;8822316;40;10008;-62
2021/07/11 03:57:31;;;;;;;;;24.00;23.33;;;;;;;;8821797;40;10281;-62
2021/07/11 04:03:37;;;;;;;;;21.67;21.00;;;;;;;;8821504;40;10502;-62
2021/07/11 04:09:41;;;;;;;;;25.25;21.50;;;;;;;;8822936;40;10714;-62
2021/07/11 04:15:49;;;;;;;;;20.00;18.00;;;;;;;;8813476;40;10031;-61
2021/07/11 04:21:56;;;;;;;;;23.67;21.33;;;;;;;;8823262;40;10361;-62
2021/07/11 04:27:59;;;;;;;;;20.75;20.50;;;;;;;;8822897;40;10798;-61
2021/07/11 04:34:23;;;;;;;;;21.33;20.00;;;;;;;;8577373;40;10000500;-61
2021/07/11 04:40:25;;;;;;;;;19.75;19.25;;;;;;;;8822542;40;10574;-63
2021/07/11 04:46:27;;;;;;;;;21.00;20.50;;;;;;;;8822601;40;10658;-61
2021/07/11 04:52:31;;;;;;;;;22.00;21.00;;;;;;;;8822991;40;10677;-62
2021/07/11 04:58:33;;;;;;;;;20.75;20.50;;;;;;;;8821575;40;10528;-62
2021/07/11 05:04:35;;;;;;;;;17.75;17.75;;;;;;;;8822456;40;11086;-61
2021/07/11 05:10:38;;;;;;;;;20.75;20.75;;;;;;;;8822716;40;11284;-61
2021/07/11 05:16:40;;;;;;;;;21.25;18.25;;;;;;;;8821194;40;10375;-61
2021/07/11 05:22:42;;;;;;;;;19.75;19.75;;;;;;;;8820739;40;10512;-61
2021/07/11 05:28:47;;;;;;;;;21.25;20.75;;;;;;;;8821337;40;10656;-61
2021/07/11 05:34:49;;;;;;;;;23.50;18.50;;;;;;;;8820468;40;10559;-61
2021/07/11 05:40:50;;;;;;;;;18.75;18.50;;;;;;;;8821076;40;10577;-61
2021/07/11 05:46:54;;;;;;;;;20.75;20.50;;;;;;;;8822482;40;10301;-61
2021/07/11 05:52:56;;;;;;;;;22.00;20.75;;;;;;;;8821362;40;10330;-63
2021/07/11 05:58:58;;;;;;;;;22.00;21.25;;;;;;;;8820620;40;10414;-62
2021/07/11 06:05:00;;;;;;;;;19.50;19.25;;;;;;;;8820966;40;10361;-62
2021/07/11 06:11:02;;;;;;;;;20.50;20.50;;;;;;;;8820822;40;10419;-62
2021/07/11 06:17:04;;;;;;;;;21.25;20.50;;;;;;;;8820363;40;10319;-63
2021/07/11 06:23:06;;;;;;;;;19.00;19.00;;;;;;;;8820386;40;10391;-63
2021/07/11 06:29:08;;;;;;;;;18.00;18.00;;;;;;;;8820117;40;10296;-63
2021/07/11 06:35:12;;;;;;;;;23.25;22.50;;;;;;;;8799853;40;11056;-63
2021/07/11 06:41:14;;;;;;;;;23.50;21.00;;;;;;;;8824525;40;10550;-61
2021/07/11 06:47:17;;;;;;;;;20.25;20.25;;;;;;;;8823943;40;10314;-61
2021/07/11 06:53:19;;;;;;;;;22.25;20.50;;;;;;;;8823930;40;10830;-61
2021/07/11 06:59:21;;;;;;;;;22.00;22.00;;;;;;;;8823433;40;10314;-61
2021/07/11 07:05:25;;;;;;;;;24.25;22.25;;;;;;;;8822827;40;10362;-63
2021/07/11 07:11:27;;;;;;;;;26.25;25.00;;;;;;;;8823387;40;10519;-63
2021/07/11 07:17:29;;;;;;;;;23.25;21.50;;;;;;;;8814120;40;10348;-61
2021/07/11 07:23:31;;;;;;;;;20.75;19.25;;;;;;;;8823527;40;10328;-63
2021/07/11 07:29:33;;;;;;;;;24.75;23.50;;;;;;;;8823994;40;10564;-61
2021/07/11 07:35:35;;;;;;;;;29.00;26.50;;;;;;;;8822920;40;10410;-62
2021/07/11 07:41:37;;;;;;;;;24.50;22.00;;;;;;;;8823235;40;10359;-64
2021/07/11 07:47:39;;;;;;;;;24.75;22.75;;;;;;;;8823691;40;11191;-63
2021/07/11 07:53:43;;;;;;;;;21.50;20.75;;;;;;;;8822719;40;10361;-64
2021/07/11 07:59:45;;;;;;;;;15.25;13.00;;;;;;;;8821842;40;10563;-62
2021/07/11 08:05:47;;;;;;;;;21.75;21.00;;;;;;;;8823171;40;10364;-63
2021/07/11 08:11:50;;;;;;;;;22.75;21.25;;;;;;;;8823802;40;10510;-63
2021/07/11 08:17:54;;;;;;;;;23.25;22.00;;;;;;;;8823181;40;10918;-62
2021/07/11 08:23:56;;;;;;;;;22.00;22.00;;;;;;;;8812626;40;10594;-63
2021/07/11 08:29:58;;;;;;;;;30.00;22.00;;;;;;;;8822455;40;10410;-64
2021/07/11 08:36:00;;;;;;;;;24.00;23.75;;;;;;;;8821808;40;10282;-62
2021/07/11 08:42:07;;;;;;;;;21.00;21.00;;;;;;;;8822560;40;10410;-62
2021/07/11 08:48:10;;;;;;;;;25.00;20.00;;;;;;;;8821608;40;10624;-63
2021/07/11 08:54:15;;;;;;;;;21.50;19.75;;;;;;;;8822210;40;10310;-63
2021/07/11 09:00:20;;;;;;;;;23.25;22.25;;;;;;;;8820669;40;10419;-62
2021/07/11 09:06:22;;;;;;;;;23.50;22.25;;;;;;;;8822226;40;10387;-64
2021/07/11 09:12:25;;;;;;;;;23.00;22.00;;;;;;;;8822432;40;10527;-65
2021/07/11 09:18:34;;;;;;;;;23.25;22.50;;;;;;;;8821362;40;10361;-62
2021/07/11 09:24:38;;;;;;;;;25.25;23.50;;;;;;;;8821373;40;10331;-62
2021/07/11 09:30:40;;;;;;;;;23.75;23.75;;;;;;;;8821104;40;10521;-62
2021/07/11 09:36:42;;;;;;;;;20.50;20.00;;;;;;;;8821698;40;10410;-63
2021/07/11 09:42:46;;;;;;;;;24.75;22.50;;;;;;;;8821196;40;10339;-63
2021/07/11 09:48:49;;;;;;;;;20.25;20.25;;;;;;;;8820635;40;10373;-62
2021/07/11 09:55:00;;;;;;;;;20.50;20.50;;;;;;;;8820721;40;10530;-62
2021/07/11 10:01:02;;;;;;;;;24.50;22.75;;;;;;;;8821453;40;10310;-64
2021/07/11 10:07:05;;;;;;;;;21.75;21.75;;;;;;;;8820773;40;10333;-62
2021/07/11 10:13:07;;;;;;;;;21.75;21.75;;;;;;;;8824263;40;10272;-66
2021/07/11 10:19:13;;;;;;;;;24.75;23.00;;;;;;;;8824957;40;10371;-63
2021/07/11 10:25:18;;;;;;;;;23.00;22.00;;;;;;;;8824962;40;10399;-63
2021/07/11 10:31:27;;;;;;;;;22.25;22.25;;;;;;;;8823849;40;10465;-63
2021/07/11 10:38:06;;;;;;;;;19.00;17.50;;;;;;;;8823698;40;10890;-63
2021/07/11 10:44:09;;;;;;;;;25.25;24.50;;;;;;;;8823116;40;10384;-65
2021/07/11 10:50:26;;;;;;;;;24.50;23.50;;;;;;;;8823449;40;10734;-63
2021/07/11 10:56:28;;;;;;;;;21.25;19.50;;;;;;;;8823939;40;10320;-63
2021/07/11 11:02:30;;;;;;;;;21.50;21.50;;;;;;;;8813771;40;10257;-63
2021/07/11 11:08:43;;;;;;;;;24.25;22.75;;;;;;;;8824320;40;10414;-63
2021/07/11 11:14:56;;;;;;;;;19.50;18.00;;;;;;;;8823948;40;10759;-63
2021/07/11 11:21:07;;;;;;;;;19.50;18.50;;;;;;;;8823010;40;10350;-63
2021/07/11 11:27:09;;;;;;;;;20.00;20.00;;;;;;;;8823081;40;11450;-62
2021/07/11 11:33:11;;;;;;;;;19.25;17.75;;;;;;;;8823621;40;10474;-67
2021/07/11 11:39:24;;;;;;;;;18.75;18.25;;;;;;;;8822550;40;10313;-64
2021/07/11 11:45:31;;;;;;;;;18.00;18.00;;;;;;;;8822238;40;10318;-62
2021/07/11 11:51:34;;;;;;;;;19.00;18.25;;;;;;;;8823076;40;10341;-63
2021/07/11 11:57:41;;;;;;;;;26.25;23.00;;;;;;;;8823895;40;10354;-63
2021/07/11 12:03:45;;;;;;;;;19.00;19.00;;;;;;;;8821918;40;10496;-64
2021/07/11 12:09:48;;;;;;;;;22.25;22.25;;;;;;;;8821155;40;10383;-63
2021/07/11 12:16:00;;;;;;;;;21.50;21.50;;;;;;;;8822568;40;10304;-62
2021/07/11 12:22:02;;;;;;;;;23.50;21.50;;;;;;;;8821668;40;10396;-63
2021/07/11 12:28:07;;;;;;;;;14.00;14.00;;;;;;;;8822104;40;10436;-64
2021/07/11 12:34:17;;;;;;;;;19.75;19.25;;;;;;;;8822226;40;10980;-63
2021/07/11 12:40:21;;;;;;;;;22.75;21.00;;;;;;;;8822086;40;10339;-62
2021/07/11 12:46:26;;;;;;;;;21.50;20.00;;;;;;;;8821655;40;10304;-63
2021/07/11 12:52:29;;;;;;;;;30.25;28.75;;;;;;;;8821952;40;10324;-65
2021/07/11 12:58:42;;;;;;;;;25.25;25.25;;;;;;;;8822172;40;10386;-62
2021/07/11 13:04:52;;;;;;;;;26.50;26.25;;;;;;;;8822479;40;10397;-63
2021/07/11 13:10:54;;;;;;;;;28.00;26.75;;;;;;;;8822063;40;10390;-63
2021/07/11 13:16:56;;;;;;;;;26.25;26.25;;;;;;;;8820416;40;10356;-63
2021/07/11 13:22:58;;;;;;;;;29.25;27.50;;;;;;;;8821192;40;10492;-65
2021/07/11 13:29:00;;;;;;;;;37.00;35.25;;;;;;;;8820946;40;10389;-63
2021/07/11 13:35:02;;;;;;;;;27.00;26.25;;;;;;;;8822039;40;10336;-62
2021/07/11 13:41:05;;;;;;;;;26.25;26.25;;;;;;;;8821067;40;10641;-62
2021/07/11 13:47:07;;;;;;;;;23.00;23.00;;;;;;;;8824605;40;10313;-62
2021/07/11 13:53:11;;;;;;;;;23.25;23.25;;;;;;;;8824769;40;10314;-64
2021/07/11 13:59:13;;;;;;;;;23.25;21.75;;;;;;;;8824718;40;10335;-63
2021/07/11 14:05:17;;;;;;;;;25.00;25.00;;;;;;;;8825525;40;10557;-64
2021/07/11 14:11:19;;;;;;;;;24.50;24.25;;;;;;;;8824784;40;10343;-64
2021/07/11 14:17:21;;;;;;;;;23.50;20.50;;;;;;;;8824440;40;10315;-63
2021/07/11 14:23:24;;;;;;;;;24.00;21.00;;;;;;;;8824409;40;10332;-62
2021/07/11 14:29:26;;;;;;;;;27.25;24.50;;;;;;;;8823954;40;10431;-63
2021/07/11 14:35:28;;;;;;;;;21.00;19.50;;;;;;;;8825051;40;10691;-63
2021/07/11 14:41:31;;;;;;;;;22.50;20.75;;;;;;;;8824982;40;10590;-64
2021/07/11 14:47:33;;;;;;;;;20.25;20.00;;;;;;;;8823713;40;10780;-64
2021/07/11 14:53:35;;;;;;;;;18.00;16.75;;;;;;;;8824978;40;11550;-63
2021/07/11 14:59:38;;;;;;;;;24.25;20.75;;;;;;;;8823629;40;10689;-64
2021/07/11 15:05:40;;;;;;;;;23.50;21.50;;;;;;;;8824514;40;10767;-64
2021/07/11 15:11:42;;;;;;;;;29.33;27.67;;;;;;;;8823488;40;10178;-67
2021/07/11 15:17:44;;;;;;;;;39.33;36.33;;;;;;;;8824162;40;9811;-63
2021/07/11 15:23:46;;;;;;;;;29.33;25.00;;;;;;;;8823536;40;9921;-65
2021/07/11 15:29:48;;;;;;;;;30.33;30.00;;;;;;;;8823053;40;9778;-63
2021/07/11 15:35:50;;;;;;;;;35.33;33.33;;;;;;;;8824396;40;10325;-63
2021/07/11 15:41:54;;;;;;;;;30.33;27.33;;;;;;;;8821382;40;9850;-62
2021/07/11 15:47:56;;;;;;;;;37.00;33.33;;;;;;;;8822361;40;9881;-62
2021/07/11 15:53:58;;;;;;;;;37.33;31.33;;;;;;;;8813184;40;9893;-63
2021/07/11 16:00:19;;;;;;;;;33.67;31.33;;;;;;;;8823530;40;9865;-62
2021/07/11 16:06:24;;;;;;;;;31.33;30.33;;;;;;;;8822543;40;10459;-64
2021/07/11 16:12:26;;;;;;;;;35.00;33.33;;;;;;;;8822180;40;10743;-64
2021/07/11 16:18:28;;;;;;;;;30.00;24.75;;;;;;;;8813243;40;10621;-63
2021/07/11 16:24:32;;;;;;;;;22.33;22.33;;;;;;;;8822409;40;10652;-62
2021/07/11 16:30:35;;;;;;;;;31.33;31.00;;;;;;;;8821921;40;10277;-64
2021/07/11 16:36:36;;;;;;;;;28.25;27.00;;;;;;;;8822267;40;10707;-64
2021/07/11 16:42:39;;;;;;;;;30.50;28.00;;;;;;;;8813260;40;10694;-63
2021/07/11 16:48:41;;;;;;;;;24.00;23.25;;;;;;;;8822032;40;10451;-63
2021/07/11 16:54:43;;;;;;;;;30.00;28.00;;;;;;;;8821747;40;10821;-63
2021/07/11 17:00:44;;;;;;;;;32.50;30.25;;;;;;;;8821382;40;11034;-63
2021/07/11 17:06:53;;;;;;;;;29.25;27.50;;;;;;;;8821580;40;10661;-63
2021/07/11 17:12:55;;;;;;;;;27.25;27.00;;;;;;;;8819935;40;10908;-63
2021/07/11 17:18:56;;;;;;;;;30.25;27.75;;;;;;;;8821165;40;11530;-62
2021/07/11 17:24:58;;;;;;;;;32.00;30.75;;;;;;;;8821789;40;10834;-65
2021/07/11 17:31:00;;;;;;;;;33.00;31.25;;;;;;;;8820997;40;10650;-63
2021/07/11 17:37:03;;;;;;;;;35.50;34.75;;;;;;;;8821054;40;10748;-63
2021/07/11 17:43:05;;;;;;;;;33.67;31.33;;;;;;;;8820609;40;10460;-64
2021/07/11 17:49:07;;;;;;;;;58.00;47.00;;;;;;;;8820720;40;9859;-63
2021/07/11 17:55:09;;;;;;;;;25.00;23.00;;;;;;;;8820680;40;10397;-62
2021/07/11 18:01:11;;;;;;;;;34.00;31.00;;;;;;;;8810736;40;10707;-62
2021/07/11 18:07:13;;;;;;;;;31.50;28.25;;;;;;;;8820641;40;10808;-63
2021/07/11 18:13:15;;;;;;;;;32.25;30.25;;;;;;;;8820296;40;10764;-64
2021/07/11 18:19:17;;;;;;;;;30.67;29.00;;;;;;;;8820402;40;11284;-62
2021/07/11 18:25:19;;;;;;;;;29.67;29.00;;;;;;;;8820674;40;10418;-64
2021/07/11 18:31:21;;;;;;;;;33.33;31.33;;;;;;;;8823410;40;10101;-62
2021/07/11 18:37:23;;;;;;;;;35.75;31.75;;;;;;;;8824265;40;10981;-66
2021/07/11 18:43:25;;;;;;;;;37.67;30.67;;;;;;;;8824724;40;10383;-64
2021/07/11 18:49:27;;;;;;;;;29.33;29.33;;;;;;;;8823775;40;10106;-63
2021/07/11 18:55:31;;;;;;;;;35.00;32.33;;;;;;;;8823587;40;10007;-62
2021/07/11 19:01:33;;;;;;;;;34.00;31.33;;;;;;;;8824316;40;9875;-64
2021/07/11 19:07:35;;;;;;;;;33.00;28.00;;;;;;;;8825452;40;9975;-62
2021/07/11 19:13:37;;;;;;;;;32.67;24.67;;;;;;;;8823116;40;10488;-62
2021/07/11 19:19:39;;;;;;;;;30.67;29.67;;;;;;;;8823447;40;10105;-63
2021/07/11 19:25:41;;;;;;;;;23.00;21.67;;;;;;;;8824097;40;10194;-65
2021/07/11 19:31:43;;;;;;;;;29.00;27.33;;;;;;;;8823607;40;10063;-64
2021/07/11 19:37:50;;;;;;;;;26.00;24.00;;;;;;;;8824128;40;10568;-63
2021/07/11 19:43:52;;;;;;;;;25.33;23.67;;;;;;;;8822722;40;9978;-62
2021/07/11 19:49:54;;;;;;;;;24.67;23.33;;;;;;;;8824366;40;10489;-63
2021/07/11 19:56:05;;;;;;;;;31.00;31.00;;;;;;;;8822937;40;10269;-63
2021/07/11 20:02:08;;;;;;;;;34.33;33.67;;;;;;;;8813007;40;9918;-62
2021/07/11 20:08:10;;;;;;;;;32.67;30.00;;;;;;;;8822602;40;10036;-62
2021/07/11 20:14:13;;;;;;;;;27.33;27.33;;;;;;;;8822556;40;9932;-62
2021/07/11 20:20:36;;;;;;;;;32.33;27.00;;;;;;;;8822634;40;10442;-63
2021/07/11 20:26:38;;;;;;;;;28.33;27.33;;;;;;;;8823502;40;10379;-64
2021/07/11 20:32:40;;;;;;;;;23.67;23.67;;;;;;;;8822219;40;10041;-62
2021/07/11 20:38:42;;;;;;;;;31.33;29.00;;;;;;;;8822007;40;10063;-63
2021/07/11 20:44:45;;;;;;;;;29.67;29.67;;;;;;;;8822783;40;10316;-62
2021/07/11 20:50:47;;;;;;;;;29.67;28.67;;;;;;;;8822702;40;10024;-63
2021/07/11 20:56:49;;;;;;;;;30.33;28.00;;;;;;;;8822321;40;10694;-67
2021/07/11 21:02:51;;;;;;;;;29.33;29.00;;;;;;;;8822527;40;10046;-63
2021/07/11 21:08:53;;;;;;;;;31.67;30.00;;;;;;;;8821763;40;10091;-64
2021/07/11 21:14:55;;;;;;;;;37.67;32.00;;;;;;;;8822466;40;10437;-62
2021/07/11 21:20:57;;;;;;;;;40.67;38.67;;;;;;;;8822170;40;9834;-61
2021/07/11 21:26:59;;;;;;;;;28.00;27.33;;;;;;;;8821835;40;10262;-62
2021/07/11 21:33:01;;;;;;;;;20.33;20.33;;;;;;;;8821842;40;10965;-64
2021/07/11 21:39:05;;;;;;;;;32.33;29.00;;;;;;;;8822079;40;10239;-63
2021/07/11 21:45:09;;;;;;;;;37.00;35.00;;;;;;;;8821948;40;9865;-63
2021/07/11 21:51:11;;;;;;;;;28.67;27.00;;;;;;;;8821522;40;10172;-61
2021/07/11 21:57:13;;;;;;;;;35.33;32.00;;;;;;;;8821121;40;10604;-63
2021/07/11 22:03:15;;;;;;;;;35.33;32.00;;;;;;;;8822239;40;10812;-64
2021/07/11 22:09:17;;;;;;;;;31.67;29.67;;;;;;;;8824872;40;10021;-62
2021/07/11 22:15:19;;;;;;;;;29.33;27.67;;;;;;;;8824062;40;10309;-62
2021/07/11 22:21:21;;;;;;;;;35.67;31.00;;;;;;;;8824464;40;9863;-62
2021/07/11 22:27:24;;;;;;;;;34.33;32.00;;;;;;;;8824524;40;10457;-62
2021/07/11 22:33:38;;;;;;;;;34.33;31.00;;;;;;;;8824171;40;9876;-62
2021/07/11 22:39:39;;;;;;;;;28.33;26.33;;;;;;;;8824114;40;9855;-62
2021/07/11 22:45:41;;;;;;;;;29.33;28.00;;;;;;;;8824328;40;9998;-62
2021/07/11 22:51:43;;;;;;;;;30.67;30.67;;;;;;;;8802250;40;10007;-61
2021/07/11 22:57:48;;;;;;;;;34.33;34.00;;;;;;;;8823447;40;9854;-62
2021/07/11 23:03:50;;;;;;;;;30.00;27.33;;;;;;;;8823944;40;9815;-63
2021/07/11 23:09:52;;;;;;;;;30.67;29.33;;;;;;;;8823510;40;10087;-61
2021/07/11 23:15:54;;;;;;;;;32.67;29.00;;;;;;;;8822441;40;9893;-61
2021/07/11 23:21:56;;;;;;;;;30.00;24.67;;;;;;;;8824007;40;10032;-62
2021/07/11 23:27:59;;;;;;;;;27.67;25.00;;;;;;;;8823535;40;10311;-62
2021/07/11 23:34:01;;;;;;;;;32.33;29.33;;;;;;;;8823095;40;9790;-63
2021/07/11 23:40:05;;;;;;;;;33.67;32.67;;;;;;;;8823988;40;9800;-62
2021/07/11 23:46:09;;;;;;;;;32.00;29.67;;;;;;;;8821868;40;11100;-62
2021/07/11 23:52:11;;;;;;;;;28.00;27.67;;;;;;;;8823374;40;9803;-62
2021/07/11 23:58:13;;;;;;;;;32.67;30.00;;;;;;;;8822352;40;11358;-61
